sensor_id;sensor_type;location;lat;lon;timestamp;temperature;humidity
49218;DHT22;35045;51.194;7.268;2022-08-21T00:02:23;17.30;99.90
49218;DHT22;35045;51.194;7.268;2022-08-21T00:04:49;17.20;99.90
49218;DHT22;35045;51.194;7.268;2022-08-21T00:07:15;17.30;99.90
49218;DHT22;35045;51.194;7.268;2022-08-21T00:09:40;17.20;99.90
49218;DHT22;35045;51.194;7.268;2022-08-21T00:12:05;17.20;99.90
49218;DHT22;35045;51.194;7.268;2022-08-21T00:14:31;17.20;99.90
49218;DHT22;35045;51.194;7.268;2022-08-21T00:16:56;17.10;99.90
49218;DHT22;35045;51.194;7.268;2022-08-21T00:19:22;17.10;99.90
49218;DHT22;35045;51.194;7.268;2022-08-21T00:21:49;17.20;99.90
49218;DHT22;35045;51.194;7.268;2022-08-21T00:24:14;17.10;99.90
49218;DHT22;35045;51.194;7.268;2022-08-21T00:26:39;17.10;99.90
49218;DHT22;35045;51.194;7.268;2022-08-21T00:29:04;17.00;99.90
49218;DHT22;35045;51.194;7.268;2022-08-21T00:31:29;17.00;99.90
49218;DHT22;35045;51.194;7.268;2022-08-21T00:33:54;17.00;99.90
49218;DHT22;35045;51.194;7.268;2022-08-21T00:36:19;16.90;99.90
49218;DHT22;35045;51.194;7.268;2022-08-21T00:38:44;16.90;99.90
49218;DHT22;35045;51.194;7.268;2022-08-21T00:41:10;16.90;99.90
49218;DHT22;35045;51.194;7.268;2022-08-21T00:43:37;16.90;99.90
49218;DHT22;35045;51.194;7.268;2022-08-21T00:46:04;16.90;99.90
49218;DHT22;35045;51.194;7.268;2022-08-21T00:48:29;16.90;99.90
49218;DHT22;35045;51.194;7.268;2022-08-21T00:51:08;16.80;99.90
49218;DHT22;35045;51.194;7.268;2022-08-21T00:53:38;16.80;99.90
49218;DHT22;35045;51.194;7.268;2022-08-21T00:56:05;16.70;99.90
49218;DHT22;35045;51.194;7.268;2022-08-21T00:58:31;16.70;99.90
49218;DHT22;35045;51.194;7.268;2022-08-21T01:00:59;16.70;99.90
49218;DHT22;35045;51.194;7.268;2022-08-21T01:03:24;16.70;99.90
49218;DHT22;35045;51.194;7.268;2022-08-21T01:05:50;16.60;99.90
49218;DHT22;35045;51.194;7.268;2022-08-21T01:08:17;16.60;99.90
49218;DHT22;35045;51.194;7.268;2022-08-21T01:10:43;16.50;99.90
49218;DHT22;35045;51.194;7.268;2022-08-21T01:13:10;16.50;99.90
49218;DHT22;35045;51.194;7.268;2022-08-21T01:15:40;16.50;99.90
49218;DHT22;35045;51.194;7.268;2022-08-21T01:18:09;16.50;99.90
49218;DHT22;35045;51.194;7.268;2022-08-21T01:20:37;16.50;99.90
49218;DHT22;35045;51.194;7.268;2022-08-21T01:23:04;16.50;99.90
49218;DHT22;35045;51.194;7.268;2022-08-21T01:25:30;16.40;99.90
49218;DHT22;35045;51.194;7.268;2022-08-21T01:27:57;16.40;99.90
49218;DHT22;35045;51.194;7.268;2022-08-21T01:30:26;16.40;99.90
49218;DHT22;35045;51.194;7.268;2022-08-21T01:32:53;16.40;99.90
49218;DHT22;35045;51.194;7.268;2022-08-21T01:35:19;16.40;99.90
49218;DHT22;35045;51.194;7.268;2022-08-21T01:37:45;16.40;99.90
49218;DHT22;35045;51.194;7.268;2022-08-21T01:40:11;16.40;99.90
49218;DHT22;35045;51.194;7.268;2022-08-21T01:42:37;16.40;99.90
49218;DHT22;35045;51.194;7.268;2022-08-21T01:45:04;16.40;99.90
49218;DHT22;35045;51.194;7.268;2022-08-21T01:47:30;16.40;99.90
49218;DHT22;35045;51.194;7.268;2022-08-21T01:49:55;16.50;99.90
49218;DHT22;35045;51.194;7.268;2022-08-21T01:52:20;16.40;99.90
49218;DHT22;35045;51.194;7.268;2022-08-21T01:54:45;16.50;99.90
49218;DHT22;35045;51.194;7.268;2022-08-21T01:57:11;16.50;99.90
49218;DHT22;35045;51.194;7.268;2022-08-21T01:59:36;16.50;99.90
49218;DHT22;35045;51.194;7.268;2022-08-21T02:02:02;16.50;99.90
49218;DHT22;35045;51.194;7.268;2022-08-21T02:04:27;16.50;99.90
49218;DHT22;35045;51.194;7.268;2022-08-21T02:06:52;16.40;99.90
49218;DHT22;35045;51.194;7.268;2022-08-21T02:09:17;16.40;99.90
49218;DHT22;35045;51.194;7.268;2022-08-21T02:11:42;16.40;99.90
49218;DHT22;35045;51.194;7.268;2022-08-21T02:14:09;16.40;99.90
49218;DHT22;35045;51.194;7.268;2022-08-21T02:16:36;16.30;99.90
49218;DHT22;35045;51.194;7.268;2022-08-21T02:19:01;16.20;99.90
49218;DHT22;35045;51.194;7.268;2022-08-21T02:21:26;16.20;99.90
49218;DHT22;35045;51.194;7.268;2022-08-21T02:23:51;16.20;99.90
49218;DHT22;35045;51.194;7.268;2022-08-21T02:26:17;16.30;99.90
49218;DHT22;35045;51.194;7.268;2022-08-21T02:28:42;16.20;99.90
49218;DHT22;35045;51.194;7.268;2022-08-21T02:31:07;16.20;99.90
49218;DHT22;35045;51.194;7.268;2022-08-21T02:33:32;16.10;99.90
49218;DHT22;35045;51.194;7.268;2022-08-21T02:35:58;16.10;99.90
49218;DHT22;35045;51.194;7.268;2022-08-21T02:38:26;16.00;99.90
49218;DHT22;35045;51.194;7.268;2022-08-21T02:40:53;16.00;99.90
49218;DHT22;35045;51.194;7.268;2022-08-21T02:43:20;15.90;99.90
49218;DHT22;35045;51.194;7.268;2022-08-21T02:45:47;15.90;99.90
49218;DHT22;35045;51.194;7.268;2022-08-21T02:48:15;15.90;99.90
49218;DHT22;35045;51.194;7.268;2022-08-21T02:53:23;15.90;99.90
49218;DHT22;35045;51.194;7.268;2022-08-21T02:55:50;15.90;99.90
49218;DHT22;35045;51.194;7.268;2022-08-21T02:58:23;15.80;99.90
49218;DHT22;35045;51.194;7.268;2022-08-21T03:00:49;15.80;99.90
49218;DHT22;35045;51.194;7.268;2022-08-21T03:03:14;15.80;99.90
49218;DHT22;35045;51.194;7.268;2022-08-21T03:05:39;15.80;99.90
49218;DHT22;35045;51.194;7.268;2022-08-21T03:08:07;15.80;99.90
49218;DHT22;35045;51.194;7.268;2022-08-21T03:10:36;15.80;99.90
49218;DHT22;35045;51.194;7.268;2022-08-21T03:13:02;15.70;99.90
49218;DHT22;35045;51.194;7.268;2022-08-21T03:15:27;15.70;99.90
49218;DHT22;35045;51.194;7.268;2022-08-21T03:17:52;15.80;99.90
49218;DHT22;35045;51.194;7.268;2022-08-21T03:20:21;15.80;99.90
49218;DHT22;35045;51.194;7.268;2022-08-21T03:22:48;15.70;99.90
49218;DHT22;35045;51.194;7.268;2022-08-21T03:25:13;15.80;99.90
49218;DHT22;35045;51.194;7.268;2022-08-21T03:27:39;15.70;99.90
49218;DHT22;35045;51.194;7.268;2022-08-21T03:30:06;15.80;99.90
49218;DHT22;35045;51.194;7.268;2022-08-21T03:32:31;15.70;99.90
49218;DHT22;35045;51.194;7.268;2022-08-21T03:34:56;15.70;99.90
49218;DHT22;35045;51.194;7.268;2022-08-21T03:37:21;15.70;99.90
49218;DHT22;35045;51.194;7.268;2022-08-21T03:39:46;15.70;99.90
49218;DHT22;35045;51.194;7.268;2022-08-21T03:42:11;15.70;99.90
49218;DHT22;35045;51.194;7.268;2022-08-21T03:44:37;15.70;99.90
49218;DHT22;35045;51.194;7.268;2022-08-21T03:47:04;15.70;99.90
49218;DHT22;35045;51.194;7.268;2022-08-21T03:49:29;15.70;99.90
49218;DHT22;35045;51.194;7.268;2022-08-21T03:51:54;15.70;99.90
49218;DHT22;35045;51.194;7.268;2022-08-21T03:54:20;15.70;99.90
49218;DHT22;35045;51.194;7.268;2022-08-21T03:56:45;15.70;99.90
49218;DHT22;35045;51.194;7.268;2022-08-21T03:59:10;15.60;99.90
49218;DHT22;35045;51.194;7.268;2022-08-21T04:01:36;15.60;99.90
49218;DHT22;35045;51.194;7.268;2022-08-21T04:04:01;15.50;99.90
49218;DHT22;35045;51.194;7.268;2022-08-21T04:06:26;15.50;99.90
49218;DHT22;35045;51.194;7.268;2022-08-21T04:08:51;15.50;99.90
49218;DHT22;35045;51.194;7.268;2022-08-21T04:11:16;15.60;99.90
49218;DHT22;35045;51.194;7.268;2022-08-21T04:13:42;15.50;99.90
49218;DHT22;35045;51.194;7.268;2022-08-21T04:16:07;15.50;99.90
49218;DHT22;35045;51.194;7.268;2022-08-21T04:18:32;15.50;99.90
49218;DHT22;35045;51.194;7.268;2022-08-21T04:20:58;15.50;99.90
49218;DHT22;35045;51.194;7.268;2022-08-21T04:23:24;15.50;99.90
49218;DHT22;35045;51.194;7.268;2022-08-21T04:25:50;15.50;99.90
49218;DHT22;35045;51.194;7.268;2022-08-21T04:28:15;15.50;99.90
49218;DHT22;35045;51.194;7.268;2022-08-21T04:30:40;15.50;99.90
49218;DHT22;35045;51.194;7.268;2022-08-21T04:33:05;15.40;99.90
49218;DHT22;35045;51.194;7.268;2022-08-21T04:35:32;15.40;99.90
49218;DHT22;35045;51.194;7.268;2022-08-21T04:37:57;15.50;99.90
49218;DHT22;35045;51.194;7.268;2022-08-21T04:40:24;15.40;99.90
49218;DHT22;35045;51.194;7.268;2022-08-21T04:42:53;15.50;99.90
49218;DHT22;35045;51.194;7.268;2022-08-21T04:45:23;15.50;99.90
49218;DHT22;35045;51.194;7.268;2022-08-21T04:47:50;15.40;99.90
49218;DHT22;35045;51.194;7.268;2022-08-21T04:50:16;15.40;99.90
49218;DHT22;35045;51.194;7.268;2022-08-21T04:52:41;15.40;99.90
49218;DHT22;35045;51.194;7.268;2022-08-21T04:55:06;15.40;99.90
49218;DHT22;35045;51.194;7.268;2022-08-21T04:57:32;15.30;99.90
49218;DHT22;35045;51.194;7.268;2022-08-21T04:59:57;15.30;99.90
49218;DHT22;35045;51.194;7.268;2022-08-21T05:02:23;15.40;99.90
49218;DHT22;35045;51.194;7.268;2022-08-21T05:04:51;15.40;99.90
49218;DHT22;35045;51.194;7.268;2022-08-21T05:07:20;15.50;99.90
49218;DHT22;35045;51.194;7.268;2022-08-21T05:09:46;15.50;99.90
49218;DHT22;35045;51.194;7.268;2022-08-21T05:12:12;15.50;99.90
49218;DHT22;35045;51.194;7.268;2022-08-21T05:14:37;15.50;99.90
49218;DHT22;35045;51.194;7.268;2022-08-21T05:17:02;15.50;99.90
49218;DHT22;35045;51.194;7.268;2022-08-21T05:19:27;15.50;99.90
49218;DHT22;35045;51.194;7.268;2022-08-21T05:21:52;15.60;99.90
49218;DHT22;35045;51.194;7.268;2022-08-21T05:24:17;15.70;99.90
49218;DHT22;35045;51.194;7.268;2022-08-21T05:26:42;15.80;99.90
49218;DHT22;35045;51.194;7.268;2022-08-21T05:29:07;15.90;99.90
49218;DHT22;35045;51.194;7.268;2022-08-21T05:31:32;15.90;99.90
49218;DHT22;35045;51.194;7.268;2022-08-21T05:33:58;16.00;99.90
49218;DHT22;35045;51.194;7.268;2022-08-21T05:36:23;16.10;99.90
49218;DHT22;35045;51.194;7.268;2022-08-21T05:38:48;16.20;99.90
49218;DHT22;35045;51.194;7.268;2022-08-21T05:41:13;16.20;99.90
49218;DHT22;35045;51.194;7.268;2022-08-21T05:43:38;16.30;99.90
49218;DHT22;35045;51.194;7.268;2022-08-21T05:46:05;16.40;99.90
49218;DHT22;35045;51.194;7.268;2022-08-21T05:48:34;16.50;99.90
49218;DHT22;35045;51.194;7.268;2022-08-21T05:51:09;16.60;99.90
49218;DHT22;35045;51.194;7.268;2022-08-21T05:53:35;16.60;99.90
49218;DHT22;35045;51.194;7.268;2022-08-21T05:56:00;16.50;99.90
49218;DHT22;35045;51.194;7.268;2022-08-21T05:58:28;16.60;99.90
49218;DHT22;35045;51.194;7.268;2022-08-21T06:00:53;16.70;99.90
49218;DHT22;35045;51.194;7.268;2022-08-21T06:03:23;16.70;99.90
49218;DHT22;35045;51.194;7.268;2022-08-21T06:05:49;16.80;99.90
49218;DHT22;35045;51.194;7.268;2022-08-21T06:08:15;16.90;99.90
49218;DHT22;35045;51.194;7.268;2022-08-21T06:10:41;17.00;99.90
49218;DHT22;35045;51.194;7.268;2022-08-21T06:13:06;17.00;99.90
49218;DHT22;35045;51.194;7.268;2022-08-21T06:15:31;17.00;99.90
49218;DHT22;35045;51.194;7.268;2022-08-21T06:17:56;17.00;99.90
49218;DHT22;35045;51.194;7.268;2022-08-21T06:20:22;17.00;99.90
49218;DHT22;35045;51.194;7.268;2022-08-21T06:22:47;17.10;99.90
49218;DHT22;35045;51.194;7.268;2022-08-21T06:25:12;17.10;99.90
49218;DHT22;35045;51.194;7.268;2022-08-21T06:27:37;17.20;99.90
49218;DHT22;35045;51.194;7.268;2022-08-21T06:30:04;17.20;99.90
49218;DHT22;35045;51.194;7.268;2022-08-21T06:32:30;17.30;99.90
49218;DHT22;35045;51.194;7.268;2022-08-21T06:34:55;17.40;99.90
49218;DHT22;35045;51.194;7.268;2022-08-21T06:37:20;17.40;99.90
49218;DHT22;35045;51.194;7.268;2022-08-21T06:39:45;17.40;99.90
49218;DHT22;35045;51.194;7.268;2022-08-21T06:42:14;17.40;99.90
49218;DHT22;35045;51.194;7.268;2022-08-21T06:44:40;17.50;99.90
49218;DHT22;35045;51.194;7.268;2022-08-21T06:47:05;17.60;99.90
49218;DHT22;35045;51.194;7.268;2022-08-21T06:49:30;17.70;99.90
49218;DHT22;35045;51.194;7.268;2022-08-21T06:51:55;17.80;99.90
49218;DHT22;35045;51.194;7.268;2022-08-21T06:54:20;17.90;99.90
49218;DHT22;35045;51.194;7.268;2022-08-21T06:56:45;18.00;99.90
49218;DHT22;35045;51.194;7.268;2022-08-21T06:59:11;18.00;99.90
49218;DHT22;35045;51.194;7.268;2022-08-21T07:01:36;18.10;99.90
49218;DHT22;35045;51.194;7.268;2022-08-21T07:04:01;18.20;99.90
49218;DHT22;35045;51.194;7.268;2022-08-21T07:06:26;18.30;99.90
49218;DHT22;35045;51.194;7.268;2022-08-21T07:08:51;18.40;99.90
49218;DHT22;35045;51.194;7.268;2022-08-21T07:11:19;18.50;99.90
49218;DHT22;35045;51.194;7.268;2022-08-21T07:13:45;18.50;99.90
49218;DHT22;35045;51.194;7.268;2022-08-21T07:16:11;18.60;99.90
49218;DHT22;35045;51.194;7.268;2022-08-21T07:18:36;18.70;99.90
49218;DHT22;35045;51.194;7.268;2022-08-21T07:21:03;18.80;99.90
49218;DHT22;35045;51.194;7.268;2022-08-21T07:23:32;18.80;99.90
49218;DHT22;35045;51.194;7.268;2022-08-21T07:25:58;18.80;99.90
49218;DHT22;35045;51.194;7.268;2022-08-21T07:28:27;18.90;99.90
49218;DHT22;35045;51.194;7.268;2022-08-21T07:30:56;19.00;99.90
49218;DHT22;35045;51.194;7.268;2022-08-21T07:33:22;19.10;99.90
49218;DHT22;35045;51.194;7.268;2022-08-21T07:35:47;19.10;99.90
49218;DHT22;35045;51.194;7.268;2022-08-21T07:38:13;19.20;99.90
49218;DHT22;35045;51.194;7.268;2022-08-21T07:40:38;19.30;99.90
49218;DHT22;35045;51.194;7.268;2022-08-21T07:43:03;19.40;99.90
49218;DHT22;35045;51.194;7.268;2022-08-21T07:45:28;19.40;99.90
49218;DHT22;35045;51.194;7.268;2022-08-21T07:47:53;19.40;99.90
49218;DHT22;35045;51.194;7.268;2022-08-21T07:50:19;19.50;99.90
49218;DHT22;35045;51.194;7.268;2022-08-21T07:52:44;19.60;99.90
49218;DHT22;35045;51.194;7.268;2022-08-21T07:55:12;19.70;99.90
49218;DHT22;35045;51.194;7.268;2022-08-21T07:57:37;19.80;99.90
49218;DHT22;35045;51.194;7.268;2022-08-21T08:00:05;19.80;99.90
49218;DHT22;35045;51.194;7.268;2022-08-21T08:02:30;19.90;99.90
49218;DHT22;35045;51.194;7.268;2022-08-21T08:05:00;19.90;99.90
49218;DHT22;35045;51.194;7.268;2022-08-21T08:07:25;19.90;99.90
49218;DHT22;35045;51.194;7.268;2022-08-21T08:09:50;20.00;99.90
49218;DHT22;35045;51.194;7.268;2022-08-21T08:12:15;20.20;99.90
49218;DHT22;35045;51.194;7.268;2022-08-21T08:14:40;20.10;99.90
49218;DHT22;35045;51.194;7.268;2022-08-21T08:17:05;20.30;99.90
49218;DHT22;35045;51.194;7.268;2022-08-21T08:19:30;20.30;99.70
49218;DHT22;35045;51.194;7.268;2022-08-21T08:21:56;20.20;99.60
49218;DHT22;35045;51.194;7.268;2022-08-21T08:24:21;20.20;99.50
49218;DHT22;35045;51.194;7.268;2022-08-21T08:26:47;20.10;99.40
49218;DHT22;35045;51.194;7.268;2022-08-21T08:29:12;20.00;99.20
49218;DHT22;35045;51.194;7.268;2022-08-21T08:31:37;20.10;99.10
49218;DHT22;35045;51.194;7.268;2022-08-21T08:34:02;20.30;98.80
49218;DHT22;35045;51.194;7.268;2022-08-21T08:36:36;20.30;98.50
49218;DHT22;35045;51.194;7.268;2022-08-21T08:39:03;20.50;98.80
49218;DHT22;35045;51.194;7.268;2022-08-21T08:41:28;20.50;98.70
49218;DHT22;35045;51.194;7.268;2022-08-21T08:43:59;20.70;98.70
49218;DHT22;35045;51.194;7.268;2022-08-21T08:46:49;20.80;98.50
49218;DHT22;35045;51.194;7.268;2022-08-21T08:49:27;20.90;98.20
49218;DHT22;35045;51.194;7.268;2022-08-21T08:52:02;20.80;98.60
49218;DHT22;35045;51.194;7.268;2022-08-21T08:54:31;20.80;98.30
49218;DHT22;35045;51.194;7.268;2022-08-21T08:56:59;20.80;98.50
49218;DHT22;35045;51.194;7.268;2022-08-21T08:59:46;20.90;98.40
49218;DHT22;35045;51.194;7.268;2022-08-21T09:02:15;21.00;98.00
49218;DHT22;35045;51.194;7.268;2022-08-21T09:04:40;21.10;98.20
49218;DHT22;35045;51.194;7.268;2022-08-21T09:12:44;21.20;97.50
49218;DHT22;35045;51.194;7.268;2022-08-21T09:20:46;21.30;97.20
49218;DHT22;35045;51.194;7.268;2022-08-21T09:26:17;21.60;97.00
49218;DHT22;35045;51.194;7.268;2022-08-21T09:28:43;21.80;96.10
49218;DHT22;35045;51.194;7.268;2022-08-21T09:31:29;21.80;96.20
49218;DHT22;35045;51.194;7.268;2022-08-21T09:34:02;21.80;95.80
49218;DHT22;35045;51.194;7.268;2022-08-21T09:39:07;22.00;95.60
49218;DHT22;35045;51.194;7.268;2022-08-21T09:41:34;22.00;95.90
49218;DHT22;35045;51.194;7.268;2022-08-21T09:44:00;22.10;96.10
49218;DHT22;35045;51.194;7.268;2022-08-21T09:46:26;22.10;95.70
49218;DHT22;35045;51.194;7.268;2022-08-21T09:48:58;22.10;96.30
49218;DHT22;35045;51.194;7.268;2022-08-21T09:51:27;22.20;96.20
49218;DHT22;35045;51.194;7.268;2022-08-21T09:53:56;22.20;95.70
49218;DHT22;35045;51.194;7.268;2022-08-21T09:56:56;22.30;96.10
49218;DHT22;35045;51.194;7.268;2022-08-21T09:59:41;22.20;95.60
49218;DHT22;35045;51.194;7.268;2022-08-21T10:02:29;22.30;95.70
49218;DHT22;35045;51.194;7.268;2022-08-21T10:05:14;22.30;96.10
49218;DHT22;35045;51.194;7.268;2022-08-21T10:07:39;22.50;95.60
49218;DHT22;35045;51.194;7.268;2022-08-21T10:10:07;22.50;95.40
49218;DHT22;35045;51.194;7.268;2022-08-21T10:18:13;22.30;96.10
49218;DHT22;35045;51.194;7.268;2022-08-21T10:25:57;22.80;95.50
49218;DHT22;35045;51.194;7.268;2022-08-21T10:28:33;22.90;95.50
49218;DHT22;35045;51.194;7.268;2022-08-21T10:31:13;23.00;95.40
49218;DHT22;35045;51.194;7.268;2022-08-21T10:34:22;23.10;95.20
49218;DHT22;35045;51.194;7.268;2022-08-21T10:37:18;23.10;94.40
49218;DHT22;35045;51.194;7.268;2022-08-21T10:40:16;23.00;94.50
49218;DHT22;35045;51.194;7.268;2022-08-21T10:48:06;23.20;94.40
49218;DHT22;35045;51.194;7.268;2022-08-21T10:50:43;23.30;94.30
49218;DHT22;35045;51.194;7.268;2022-08-21T10:55:59;23.50;93.90
49218;DHT22;35045;51.194;7.268;2022-08-21T10:58:29;23.50;93.80
49218;DHT22;35045;51.194;7.268;2022-08-21T11:01:07;23.60;93.90
49218;DHT22;35045;51.194;7.268;2022-08-21T11:03:42;23.70;92.90
49218;DHT22;35045;51.194;7.268;2022-08-21T11:06:24;23.80;93.70
49218;DHT22;35045;51.194;7.268;2022-08-21T11:08:58;23.90;92.80
49218;DHT22;35045;51.194;7.268;2022-08-21T11:14:11;24.00;92.80
49218;DHT22;35045;51.194;7.268;2022-08-21T11:16:42;24.10;93.40
49218;DHT22;35045;51.194;7.268;2022-08-21T11:19:22;24.10;92.40
49218;DHT22;35045;51.194;7.268;2022-08-21T11:21:55;24.00;91.90
49218;DHT22;35045;51.194;7.268;2022-08-21T11:24:34;23.90;91.50
49218;DHT22;35045;51.194;7.268;2022-08-21T11:29:37;24.00;90.80
49218;DHT22;35045;51.194;7.268;2022-08-21T11:32:43;24.10;91.50
49218;DHT22;35045;51.194;7.268;2022-08-21T11:35:27;24.20;91.00
49218;DHT22;35045;51.194;7.268;2022-08-21T11:40:40;24.20;91.10
49218;DHT22;35045;51.194;7.268;2022-08-21T11:45:53;24.20;90.50
49218;DHT22;35045;51.194;7.268;2022-08-21T11:50:44;24.30;90.40
49218;DHT22;35045;51.194;7.268;2022-08-21T11:56:31;24.50;90.10
49218;DHT22;35045;51.194;7.268;2022-08-21T11:58:40;24.60;90.30
49218;DHT22;35045;51.194;7.268;2022-08-21T12:01:12;24.80;90.20
49218;DHT22;35045;51.194;7.268;2022-08-21T12:03:52;24.90;90.00
49218;DHT22;35045;51.194;7.268;2022-08-21T12:06:29;25.20;90.60
49218;DHT22;35045;51.194;7.268;2022-08-21T12:09:01;25.30;89.90
49218;DHT22;35045;51.194;7.268;2022-08-21T12:11:26;25.40;88.60
49218;DHT22;35045;51.194;7.268;2022-08-21T12:14:16;25.40;88.00
49218;DHT22;35045;51.194;7.268;2022-08-21T12:16:45;25.60;87.60
49218;DHT22;35045;51.194;7.268;2022-08-21T12:19:29;25.80;88.50
49218;DHT22;35045;51.194;7.268;2022-08-21T12:26:55;25.80;87.20
49218;DHT22;35045;51.194;7.268;2022-08-21T12:29:33;26.10;88.00
49218;DHT22;35045;51.194;7.268;2022-08-21T12:34:38;26.10;87.30
49218;DHT22;35045;51.194;7.268;2022-08-21T12:39:44;25.90;87.00
49218;DHT22;35045;51.194;7.268;2022-08-21T12:42:17;25.90;86.90
49218;DHT22;35045;51.194;7.268;2022-08-21T12:44:55;26.10;87.00
49218;DHT22;35045;51.194;7.268;2022-08-21T12:47:45;26.10;86.10
49218;DHT22;35045;51.194;7.268;2022-08-21T12:50:19;26.30;85.60
49218;DHT22;35045;51.194;7.268;2022-08-21T12:53:07;26.50;86.20
49218;DHT22;35045;51.194;7.268;2022-08-21T12:55:34;26.70;84.10
49218;DHT22;35045;51.194;7.268;2022-08-21T12:57:59;26.90;83.40
49218;DHT22;35045;51.194;7.268;2022-08-21T13:00:26;27.20;83.10
49218;DHT22;35045;51.194;7.268;2022-08-21T13:02:53;27.00;82.80
49218;DHT22;35045;51.194;7.268;2022-08-21T13:05:32;27.00;82.00
49218;DHT22;35045;51.194;7.268;2022-08-21T13:07:59;27.20;81.10
49218;DHT22;35045;51.194;7.268;2022-08-21T13:10:29;27.60;81.20
49218;DHT22;35045;51.194;7.268;2022-08-21T13:13:01;27.50;79.40
49218;DHT22;35045;51.194;7.268;2022-08-21T13:15:33;27.80;78.90
49218;DHT22;35045;51.194;7.268;2022-08-21T13:17:59;28.30;80.10
49218;DHT22;35045;51.194;7.268;2022-08-21T13:20:35;28.30;78.10
49218;DHT22;35045;51.194;7.268;2022-08-21T13:23:18;28.50;77.50
49218;DHT22;35045;51.194;7.268;2022-08-21T13:25:43;28.60;77.00
49218;DHT22;35045;51.194;7.268;2022-08-21T13:28:11;28.10;76.70
49218;DHT22;35045;51.194;7.268;2022-08-21T13:30:52;28.00;76.70
49218;DHT22;35045;51.194;7.268;2022-08-21T13:33:20;28.30;76.40
49218;DHT22;35045;51.194;7.268;2022-08-21T13:35:52;28.40;77.00
49218;DHT22;35045;51.194;7.268;2022-08-21T13:38:30;27.90;75.50
49218;DHT22;35045;51.194;7.268;2022-08-21T13:41:03;28.00;75.00
49218;DHT22;35045;51.194;7.268;2022-08-21T13:43:33;27.90;75.10
49218;DHT22;35045;51.194;7.268;2022-08-21T13:46:00;27.80;75.30
49218;DHT22;35045;51.194;7.268;2022-08-21T13:48:30;28.00;75.80
49218;DHT22;35045;51.194;7.268;2022-08-21T13:50:57;27.70;75.80
49218;DHT22;35045;51.194;7.268;2022-08-21T13:56:03;26.80;78.50
49218;DHT22;35045;51.194;7.268;2022-08-21T13:58:41;26.70;78.40
49218;DHT22;35045;51.194;7.268;2022-08-21T14:01:21;27.00;77.70
49218;DHT22;35045;51.194;7.268;2022-08-21T14:03:48;27.40;77.50
49218;DHT22;35045;51.194;7.268;2022-08-21T14:06:24;27.80;76.90
49218;DHT22;35045;51.194;7.268;2022-08-21T14:08:59;28.50;75.30
49218;DHT22;35045;51.194;7.268;2022-08-21T14:11:26;28.50;74.90
49218;DHT22;35045;51.194;7.268;2022-08-21T14:16:27;27.70;73.60
49218;DHT22;35045;51.194;7.268;2022-08-21T14:19:08;27.70;73.10
49218;DHT22;35045;51.194;7.268;2022-08-21T14:21:35;27.60;74.50
49218;DHT22;35045;51.194;7.268;2022-08-21T14:24:04;27.60;75.10
49218;DHT22;35045;51.194;7.268;2022-08-21T14:26:29;27.70;75.00
49218;DHT22;35045;51.194;7.268;2022-08-21T14:28:59;27.90;73.00
49218;DHT22;35045;51.194;7.268;2022-08-21T14:31:29;28.30;73.20
49218;DHT22;35045;51.194;7.268;2022-08-21T14:33:55;28.70;71.70
49218;DHT22;35045;51.194;7.268;2022-08-21T14:36:20;29.30;72.20
49218;DHT22;35045;51.194;7.268;2022-08-21T14:38:45;29.50;72.40
49218;DHT22;35045;51.194;7.268;2022-08-21T14:41:18;29.80;72.40
49218;DHT22;35045;51.194;7.268;2022-08-21T14:43:45;30.10;69.50
49218;DHT22;35045;51.194;7.268;2022-08-21T14:46:12;30.20;68.20
49218;DHT22;35045;51.194;7.268;2022-08-21T14:48:38;30.10;68.30
49218;DHT22;35045;51.194;7.268;2022-08-21T14:51:03;30.20;68.10
49218;DHT22;35045;51.194;7.268;2022-08-21T14:53:28;30.70;68.10
49218;DHT22;35045;51.194;7.268;2022-08-21T14:55:53;31.00;67.70
49218;DHT22;35045;51.194;7.268;2022-08-21T14:58:40;31.70;66.80
49218;DHT22;35045;51.194;7.268;2022-08-21T15:01:11;32.00;64.70
49218;DHT22;35045;51.194;7.268;2022-08-21T15:03:37;31.90;64.70
49218;DHT22;35045;51.194;7.268;2022-08-21T15:06:04;31.70;63.20
49218;DHT22;35045;51.194;7.268;2022-08-21T15:08:29;32.00;63.70
49218;DHT22;35045;51.194;7.268;2022-08-21T15:10:55;32.40;62.80
49218;DHT22;35045;51.194;7.268;2022-08-21T15:13:21;32.50;62.20
49218;DHT22;35045;51.194;7.268;2022-08-21T15:15:48;33.10;61.60
49218;DHT22;35045;51.194;7.268;2022-08-21T15:18:13;33.70;60.80
49218;DHT22;35045;51.194;7.268;2022-08-21T15:20:39;34.20;60.10
49218;DHT22;35045;51.194;7.268;2022-08-21T15:23:05;34.50;59.50
49218;DHT22;35045;51.194;7.268;2022-08-21T15:25:31;34.60;58.10
49218;DHT22;35045;51.194;7.268;2022-08-21T15:27:56;34.50;57.60
49218;DHT22;35045;51.194;7.268;2022-08-21T15:30:22;34.60;57.60
49218;DHT22;35045;51.194;7.268;2022-08-21T15:32:47;34.50;56.10
49218;DHT22;35045;51.194;7.268;2022-08-21T15:35:12;34.60;56.20
49218;DHT22;35045;51.194;7.268;2022-08-21T15:37:37;34.60;55.90
49218;DHT22;35045;51.194;7.268;2022-08-21T15:40:03;34.70;55.40
49218;DHT22;35045;51.194;7.268;2022-08-21T15:42:29;34.30;55.70
49218;DHT22;35045;51.194;7.268;2022-08-21T15:44:55;34.00;55.70
49218;DHT22;35045;51.194;7.268;2022-08-21T15:47:29;34.10;55.80
49218;DHT22;35045;51.194;7.268;2022-08-21T15:49:55;34.20;55.50
49218;DHT22;35045;51.194;7.268;2022-08-21T15:52:21;33.40;55.20
49218;DHT22;35045;51.194;7.268;2022-08-21T15:54:46;32.20;56.40
49218;DHT22;35045;51.194;7.268;2022-08-21T15:57:13;31.70;57.50
49218;DHT22;35045;51.194;7.268;2022-08-21T15:59:43;32.10;57.30
49218;DHT22;35045;51.194;7.268;2022-08-21T16:02:14;33.10;56.40
49218;DHT22;35045;51.194;7.268;2022-08-21T16:04:39;33.50;56.40
49218;DHT22;35045;51.194;7.268;2022-08-21T16:07:04;33.80;56.60
49218;DHT22;35045;51.194;7.268;2022-08-21T16:09:29;34.30;55.00
49218;DHT22;35045;51.194;7.268;2022-08-21T16:11:55;34.60;53.40
49218;DHT22;35045;51.194;7.268;2022-08-21T16:14:20;34.30;53.60
49218;DHT22;35045;51.194;7.268;2022-08-21T16:16:46;33.40;54.80
49218;DHT22;35045;51.194;7.268;2022-08-21T16:19:11;32.70;55.60
49218;DHT22;35045;51.194;7.268;2022-08-21T16:21:37;32.80;55.10
49218;DHT22;35045;51.194;7.268;2022-08-21T16:24:02;33.40;55.30
49218;DHT22;35045;51.194;7.268;2022-08-21T16:26:28;33.50;55.40
49218;DHT22;35045;51.194;7.268;2022-08-21T16:28:55;33.30;55.90
49218;DHT22;35045;51.194;7.268;2022-08-21T16:31:21;32.70;56.70
49218;DHT22;35045;51.194;7.268;2022-08-21T16:33:50;32.40;57.30
49218;DHT22;35045;51.194;7.268;2022-08-21T16:36:16;31.80;58.40
49218;DHT22;35045;51.194;7.268;2022-08-21T16:38:41;31.20;58.70
49218;DHT22;35045;51.194;7.268;2022-08-21T16:41:12;30.40;60.40
49218;DHT22;35045;51.194;7.268;2022-08-21T16:43:39;30.40;60.20
49218;DHT22;35045;51.194;7.268;2022-08-21T16:46:07;30.60;60.00
49218;DHT22;35045;51.194;7.268;2022-08-21T16:48:32;30.60;59.90